sensor_id;sensor_type;location;lat;lon;timestamp;pressure;altitude;pressure_sealevel;temperature;humidity
33953;BME280;20231;42.710;23.280;2023-01-27T00:01:50;94116.66;;;4.82;67.05
33953;BME280;20231;42.710;23.280;2023-01-27T00:04:16;94072.81;;;4.54;66.77
33953;BME280;20231;42.710;23.280;2023-01-27T00:06:41;94105.44;;;4.67;67.08
33953;BME280;20231;42.710;23.280;2023-01-27T00:09:06;94120.31;;;4.81;66.82
33953;BME280;20231;42.710;23.280;2023-01-27T00:11:32;94108.59;;;4.69;66.95
33953;BME280;20231;42.710;23.280;2023-01-27T00:14:16;94101.00;;;4.57;67.01
33953;BME280;20231;42.710;23.280;2023-01-27T00:16:41;94097.88;;;4.55;67.35
33953;BME280;20231;42.710;23.280;2023-01-27T00:19:08;94103.88;;;4.66;67.11
33953;BME280;20231;42.710;23.280;2023-01-27T00:21:33;94067.34;;;4.31;67.31
33953;BME280;20231;42.710;23.280;2023-01-27T00:24:18;94063.94;;;4.35;67.77
33953;BME280;20231;42.710;23.280;2023-01-27T00:27:06;94074.13;;;4.52;67.72
33953;BME280;20231;42.710;23.280;2023-01-27T00:29:37;94077.25;;;4.49;67.69
33953;BME280;20231;42.710;23.280;2023-01-27T00:32:03;94047.25;;;4.36;67.88
33953;BME280;20231;42.710;23.280;2023-01-27T00:34:47;94093.19;;;4.52;67.78
33953;BME280;20231;42.710;23.280;2023-01-27T00:37:12;94050.59;;;4.67;77.54
33953;BME280;20231;42.710;23.280;2023-01-27T00:39:38;94090.28;;;6.86;99.16
33953;BME280;20231;42.710;23.280;2023-01-27T00:42:03;94085.19;;;7.70;100.00
33953;BME280;20231;42.710;23.280;2023-01-27T00:44:29;94082.41;;;7.14;97.88
33953;BME280;20231;42.710;23.280;2023-01-27T00:46:55;94051.47;;;6.27;69.43
33953;BME280;20231;42.710;23.280;2023-01-27T00:49:20;94073.53;;;6.16;66.82
33953;BME280;20231;42.710;23.280;2023-01-27T00:51:46;94084.97;;;5.91;66.12
33953;BME280;20231;42.710;23.280;2023-01-27T00:54:11;94079.00;;;5.71;65.35
33953;BME280;20231;42.710;23.280;2023-01-27T00:56:38;94089.75;;;5.69;65.52
33953;BME280;20231;42.710;23.280;2023-01-27T00:59:04;94067.38;;;5.39;65.83
33953;BME280;20231;42.710;23.280;2023-01-27T01:01:30;94085.91;;;5.47;66.16
33953;BME280;20231;42.710;23.280;2023-01-27T01:03:55;94084.69;;;5.30;66.40
33953;BME280;20231;42.710;23.280;2023-01-27T01:06:23;94072.69;;;5.24;66.45
33953;BME280;20231;42.710;23.280;2023-01-27T01:08:48;94074.28;;;5.10;67.06
33953;BME280;20231;42.710;23.280;2023-01-27T01:11:16;94072.69;;;5.14;67.16
33953;BME280;20231;42.710;23.280;2023-01-27T01:13:43;94075.06;;;5.05;67.28
33953;BME280;20231;42.710;23.280;2023-01-27T01:16:18;94086.88;;;4.98;67.76
33953;BME280;20231;42.710;23.280;2023-01-27T01:18:44;94073.28;;;4.91;67.79
33953;BME280;20231;42.710;23.280;2023-01-27T01:21:13;94084.78;;;4.90;68.01
33953;BME280;20231;42.710;23.280;2023-01-27T01:23:43;94076.16;;;4.85;68.05
33953;BME280;20231;42.710;23.280;2023-01-27T01:26:10;94092.59;;;5.00;67.75
33953;BME280;20231;42.710;23.280;2023-01-27T01:28:36;94088.72;;;4.83;67.74
33953;BME280;20231;42.710;23.280;2023-01-27T01:31:09;94067.56;;;4.69;67.95
33953;BME280;20231;42.710;23.280;2023-01-27T01:33:36;94055.31;;;4.65;68.27
33953;BME280;20231;42.710;23.280;2023-01-27T01:36:03;94080.88;;;4.53;69.26
33953;BME280;20231;42.710;23.280;2023-01-27T01:38:29;94093.94;;;4.68;68.97
33953;BME280;20231;42.710;23.280;2023-01-27T01:40:54;94073.59;;;4.30;69.47
33953;BME280;20231;42.710;23.280;2023-01-27T01:43:20;94081.94;;;4.37;69.70
33953;BME280;20231;42.710;23.280;2023-01-27T01:45:55;94103.09;;;4.16;70.81
33953;BME280;20231;42.710;23.280;2023-01-27T01:48:39;94104.69;;;4.36;70.26
33953;BME280;20231;42.710;23.280;2023-01-27T01:51:30;94103.09;;;4.45;69.99
33953;BME280;20231;42.710;23.280;2023-01-27T01:54:11;94084.81;;;4.45;69.83
33953;BME280;20231;42.710;23.280;2023-01-27T01:56:45;94079.59;;;4.50;69.69
33953;BME280;20231;42.710;23.280;2023-01-27T01:59:15;94076.72;;;4.47;69.97
33953;BME280;20231;42.710;23.280;2023-01-27T02:01:42;94078.56;;;4.36;69.93
33953;BME280;20231;42.710;23.280;2023-01-27T02:04:12;94059.50;;;4.51;69.40
33953;BME280;20231;42.710;23.280;2023-01-27T02:06:42;94066.56;;;4.35;70.09
33953;BME280;20231;42.710;23.280;2023-01-27T02:09:10;94050.09;;;4.25;70.03
33953;BME280;20231;42.710;23.280;2023-01-27T02:11:36;94052.69;;;4.50;69.57
33953;BME280;20231;42.710;23.280;2023-01-27T02:14:01;94040.19;;;4.52;69.03
33953;BME280;20231;42.710;23.280;2023-01-27T02:16:28;94029.97;;;4.45;69.40
33953;BME280;20231;42.710;23.280;2023-01-27T02:18:54;94025.81;;;4.44;69.59
33953;BME280;20231;42.710;23.280;2023-01-27T02:21:19;94028.69;;;4.58;68.68
33953;BME280;20231;42.710;23.280;2023-01-27T02:24:00;94035.47;;;4.04;69.92
33953;BME280;20231;42.710;23.280;2023-01-27T02:26:37;94016.94;;;4.21;70.19
33953;BME280;20231;42.710;23.280;2023-01-27T02:29:07;94017.19;;;4.29;70.34
33953;BME280;20231;42.710;23.280;2023-01-27T02:31:33;94012.75;;;4.44;70.09
33953;BME280;20231;42.710;23.280;2023-01-27T02:34:03;94020.56;;;4.59;69.69
33953;BME280;20231;42.710;23.280;2023-01-27T02:36:33;94015.63;;;4.48;69.89
33953;BME280;20231;42.710;23.280;2023-01-27T02:39:01;94025.00;;;4.54;69.59
33953;BME280;20231;42.710;23.280;2023-01-27T02:41:34;94023.72;;;4.41;70.03
33953;BME280;20231;42.710;23.280;2023-01-27T02:44:01;94011.97;;;4.29;70.33
33953;BME280;20231;42.710;23.280;2023-01-27T02:46:27;94031.03;;;4.44;70.09
33953;BME280;20231;42.710;23.280;2023-01-27T02:48:53;94030.50;;;4.67;68.98
33953;BME280;20231;42.710;23.280;2023-01-27T02:51:18;94030.72;;;4.76;68.48
33953;BME280;20231;42.710;23.280;2023-01-27T02:53:44;94027.38;;;4.60;68.96
33953;BME280;20231;42.710;23.280;2023-01-27T02:56:10;94027.38;;;4.50;69.24
33953;BME280;20231;42.710;23.280;2023-01-27T02:58:36;94031.31;;;4.33;70.32
33953;BME280;20231;42.710;23.280;2023-01-27T03:01:01;94024.25;;;4.53;69.87
33953;BME280;20231;42.710;23.280;2023-01-27T03:03:27;94014.56;;;4.59;69.51
33953;BME280;20231;42.710;23.280;2023-01-27T03:05:52;94031.25;;;4.68;68.81
33953;BME280;20231;42.710;23.280;2023-01-27T03:08:18;94029.19;;;4.50;69.61
33953;BME280;20231;42.710;23.280;2023-01-27T03:10:44;94004.66;;;4.46;69.82
33953;BME280;20231;42.710;23.280;2023-01-27T03:13:13;93999.94;;;4.53;69.08
33953;BME280;20231;42.710;23.280;2023-01-27T03:15:38;94027.34;;;4.65;68.95
33953;BME280;20231;42.710;23.280;2023-01-27T03:18:22;94008.34;;;4.40;69.56
33953;BME280;20231;42.710;23.280;2023-01-27T03:20:48;94013.53;;;4.35;70.10
33953;BME280;20231;42.710;23.280;2023-01-27T03:23:16;94012.78;;;4.15;70.95
33953;BME280;20231;42.710;23.280;2023-01-27T03:25:43;94001.81;;;4.18;71.55
33953;BME280;20231;42.710;23.280;2023-01-27T03:28:09;93986.94;;;4.33;70.80
33953;BME280;20231;42.710;23.280;2023-01-27T03:30:35;93992.66;;;4.35;70.82
33953;BME280;20231;42.710;23.280;2023-01-27T03:33:00;93987.19;;;4.36;70.44
33953;BME280;20231;42.710;23.280;2023-01-27T03:35:28;93985.13;;;4.23;70.66
33953;BME280;20231;42.710;23.280;2023-01-27T03:37:59;93967.88;;;4.22;71.10
33953;BME280;20231;42.710;23.280;2023-01-27T03:40:43;93981.22;;;4.21;70.58
33953;BME280;20231;42.710;23.280;2023-01-27T03:43:27;93987.19;;;4.22;71.43
33953;BME280;20231;42.710;23.280;2023-01-27T03:46:11;93961.88;;;4.32;70.82
33953;BME280;20231;42.710;23.280;2023-01-27T03:48:41;93966.28;;;4.41;70.16
33953;BME280;20231;42.710;23.280;2023-01-27T03:51:08;93969.91;;;4.50;69.86
33953;BME280;20231;42.710;23.280;2023-01-27T03:53:35;93971.47;;;4.61;69.64
33953;BME280;20231;42.710;23.280;2023-01-27T03:56:01;93973.31;;;4.56;69.57
33953;BME280;20231;42.710;23.280;2023-01-27T03:58:31;93960.53;;;4.54;69.95
33953;BME280;20231;42.710;23.280;2023-01-27T04:00:59;93963.38;;;4.63;69.72
33953;BME280;20231;42.710;23.280;2023-01-27T04:03:27;93969.38;;;4.58;69.94
33953;BME280;20231;42.710;23.280;2023-01-27T04:06:14;93964.13;;;4.68;68.67
33953;BME280;20231;42.710;23.280;2023-01-27T04:08:59;93975.94;;;4.41;69.81
33953;BME280;20231;42.710;23.280;2023-01-27T04:11:24;93983.75;;;4.51;69.71
33953;BME280;20231;42.710;23.280;2023-01-27T04:14:09;93989.22;;;4.64;69.11
33953;BME280;20231;42.710;23.280;2023-01-27T04:16:35;94023.41;;;4.83;68.91
33953;BME280;20231;42.710;23.280;2023-01-27T04:19:05;94030.69;;;4.91;68.62
33953;BME280;20231;42.710;23.280;2023-01-27T04:21:31;94041.41;;;4.84;68.82
33953;BME280;20231;42.710;23.280;2023-01-27T04:23:58;94034.13;;;4.76;69.02
33953;BME280;20231;42.710;23.280;2023-01-27T04:26:24;94014.81;;;4.72;68.84
33953;BME280;20231;42.710;23.280;2023-01-27T04:28:49;94031.25;;;4.83;68.91
33953;BME280;20231;42.710;23.280;2023-01-27T04:31:16;94048.16;;;5.00;68.52
33953;BME280;20231;42.710;23.280;2023-01-27T04:33:42;94041.38;;;4.94;68.58
33953;BME280;20231;42.710;23.280;2023-01-27T04:36:09;94047.41;;;4.94;68.35
33953;BME280;20231;42.710;23.280;2023-01-27T04:38:35;94059.69;;;4.99;68.07
33953;BME280;20231;42.710;23.280;2023-01-27T04:41:00;94048.44;;;4.98;68.45
33953;BME280;20231;42.710;23.280;2023-01-27T04:43:26;94035.09;;;5.00;68.44
33953;BME280;20231;42.710;23.280;2023-01-27T04:45:51;94033.84;;;4.88;68.55
33953;BME280;20231;42.710;23.280;2023-01-27T04:48:17;94046.59;;;5.04;67.87
33953;BME280;20231;42.710;23.280;2023-01-27T04:50:42;94048.41;;;5.08;67.87
33953;BME280;20231;42.710;23.280;2023-01-27T04:53:08;94035.38;;;4.98;67.90
33953;BME280;20231;42.710;23.280;2023-01-27T04:55:33;94036.16;;;5.04;68.27
33953;BME280;20231;42.710;23.280;2023-01-27T04:57:58;94054.97;;;5.01;68.76
33953;BME280;20231;42.710;23.280;2023-01-27T05:00:24;94074.53;;;5.13;68.34
33953;BME280;20231;42.710;23.280;2023-01-27T05:02:49;94058.88;;;5.08;68.23
33953;BME280;20231;42.710;23.280;2023-01-27T05:05:15;94050.53;;;4.92;68.39
33953;BME280;20231;42.710;23.280;2023-01-27T05:07:40;94041.16;;;4.86;68.40
33953;BME280;20231;42.710;23.280;2023-01-27T05:10:06;94063.13;;;4.70;69.49
33953;BME280;20231;42.710;23.280;2023-01-27T05:12:32;94044.56;;;4.76;69.17
33953;BME280;20231;42.710;23.280;2023-01-27T05:14:58;94067.53;;;4.99;68.83
33953;BME280;20231;42.710;23.280;2023-01-27T05:17:23;94052.63;;;4.94;68.58
33953;BME280;20231;42.710;23.280;2023-01-27T05:19:48;94052.34;;;5.01;68.19
33953;BME280;20231;42.710;23.280;2023-01-27T05:22:14;94061.78;;;4.97;68.56
33953;BME280;20231;42.710;23.280;2023-01-27T05:24:39;94042.72;;;4.82;68.90
33953;BME280;20231;42.710;23.280;2023-01-27T05:27:05;94053.94;;;4.97;68.68
33953;BME280;20231;42.710;23.280;2023-01-27T05:29:30;94031.75;;;4.80;68.76
33953;BME280;20231;42.710;23.280;2023-01-27T05:31:56;93999.13;;;4.62;68.95
33953;BME280;20231;42.710;23.280;2023-01-27T05:34:21;94042.69;;;4.96;68.59
33953;BME280;20231;42.710;23.280;2023-01-27T05:36:47;94032.00;;;4.83;68.58
33953;BME280;20231;42.710;23.280;2023-01-27T05:39:13;94030.50;;;4.32;69.20
33953;BME280;20231;42.710;23.280;2023-01-27T05:41:39;94024.00;;;4.05;70.82
33953;BME280;20231;42.710;23.280;2023-01-27T05:44:05;94022.44;;;3.99;73.76
33953;BME280;20231;42.710;23.280;2023-01-27T05:46:31;94015.13;;;4.26;74.32
33953;BME280;20231;42.710;23.280;2023-01-27T05:49:02;94028.44;;;4.20;70.70
33953;BME280;20231;42.710;23.280;2023-01-27T05:51:35;94028.44;;;4.34;70.11
33953;BME280;20231;42.710;23.280;2023-01-27T05:54:02;94026.34;;;3.97;71.00
33953;BME280;20231;42.710;23.280;2023-01-27T05:56:27;94022.44;;;4.14;70.15
33953;BME280;20231;42.710;23.280;2023-01-27T05:58:54;94028.19;;;3.96;70.83
33953;BME280;20231;42.710;23.280;2023-01-27T06:01:28;94040.44;;;4.30;69.93
33953;BME280;20231;42.710;23.280;2023-01-27T06:03:54;94043.81;;;4.41;69.30
33953;BME280;20231;42.710;23.280;2023-01-27T06:06:22;94035.97;;;4.41;68.97
33953;BME280;20231;42.710;23.280;2023-01-27T06:08:48;94041.47;;;4.44;68.43
33953;BME280;20231;42.710;23.280;2023-01-27T06:11:15;94031.28;;;4.48;68.10
33953;BME280;20231;42.710;23.280;2023-01-27T06:13:41;94024.75;;;4.50;68.01
33953;BME280;20231;42.710;23.280;2023-01-27T06:16:08;94046.19;;;4.47;68.05
33953;BME280;20231;42.710;23.280;2023-01-27T06:18:34;94045.94;;;4.39;68.35
33953;BME280;20231;42.710;23.280;2023-01-27T06:21:01;94037.06;;;4.25;68.29
33953;BME280;20231;42.710;23.280;2023-01-27T06:23:27;94017.19;;;4.29;68.04
33953;BME280;20231;42.710;23.280;2023-01-27T06:25:54;94025.81;;;4.39;68.30
33953;BME280;20231;42.710;23.280;2023-01-27T06:28:20;94046.72;;;4.49;68.15
33953;BME280;20231;42.710;23.280;2023-01-27T06:30:46;94048.25;;;4.60;67.77
33953;BME280;20231;42.710;23.280;2023-01-27T06:33:12;94050.34;;;4.53;67.78
33953;BME280;20231;42.710;23.280;2023-01-27T06:35:39;94056.59;;;4.62;67.49
33953;BME280;20231;42.710;23.280;2023-01-27T06:38:07;94046.16;;;4.52;67.61
33953;BME280;20231;42.710;23.280;2023-01-27T06:40:33;94012.22;;;4.47;66.95
33953;BME280;20231;42.710;23.280;2023-01-27T06:42:58;94037.56;;;4.57;67.32
33953;BME280;20231;42.710;23.280;2023-01-27T06:45:24;94063.38;;;4.63;67.19
33953;BME280;20231;42.710;23.280;2023-01-27T06:47:57;94069.66;;;4.57;67.52
33953;BME280;20231;42.710;23.280;2023-01-27T06:50:24;94055.56;;;4.58;67.16
33953;BME280;20231;42.710;23.280;2023-01-27T06:52:51;94051.13;;;4.54;67.77
33953;BME280;20231;42.710;23.280;2023-01-27T06:55:17;94060.53;;;4.55;67.75
33953;BME280;20231;42.710;23.280;2023-01-27T06:57:44;94071.50;;;4.62;67.79
33953;BME280;20231;42.710;23.280;2023-01-27T07:00:12;94057.38;;;4.53;67.04
33953;BME280;20231;42.710;23.280;2023-01-27T07:02:38;94053.75;;;4.64;66.95
33953;BME280;20231;42.710;23.280;2023-01-27T07:05:04;94053.97;;;4.77;66.75
33953;BME280;20231;42.710;23.280;2023-01-27T07:07:29;94063.91;;;4.80;66.67
33953;BME280;20231;42.710;23.280;2023-01-27T07:09:55;94067.03;;;4.82;66.59
33953;BME280;20231;42.710;23.280;2023-01-27T07:12:20;94069.09;;;4.90;66.86
33953;BME280;20231;42.710;23.280;2023-01-27T07:14:45;94065.72;;;4.85;66.87
33953;BME280;20231;42.710;23.280;2023-01-27T07:17:11;94075.09;;;4.91;67.08
33953;BME280;20231;42.710;23.280;2023-01-27T07:19:36;94077.19;;;4.98;67.03
33953;BME280;20231;42.710;23.280;2023-01-27T07:22:01;94012.50;;;4.51;66.97
33953;BME280;20231;42.710;23.280;2023-01-27T07:24:27;94064.97;;;4.59;67.86
33953;BME280;20231;42.710;23.280;2023-01-27T07:26:52;94074.09;;;4.72;67.81
33953;BME280;20231;42.710;23.280;2023-01-27T07:29:17;94064.94;;;4.84;67.24
33953;BME280;20231;42.710;23.280;2023-01-27T07:31:43;94069.63;;;4.97;66.60
33953;BME280;20231;42.710;23.280;2023-01-27T07:34:09;94058.91;;;4.89;66.87
33953;BME280;20231;42.710;23.280;2023-01-27T07:36:34;94064.41;;;4.92;66.87
33953;BME280;20231;42.710;23.280;2023-01-27T07:39:00;94062.28;;;4.94;66.65
33953;BME280;20231;42.710;23.280;2023-01-27T07:41:25;94068.09;;;4.66;65.78
33953;BME280;20231;42.710;23.280;2023-01-27T07:43:51;94070.94;;;4.85;65.60
33953;BME280;20231;42.710;23.280;2023-01-27T07:46:16;94067.84;;;4.63;65.45
33953;BME280;20231;42.710;23.280;2023-01-27T07:48:41;94064.69;;;4.66;65.89
33953;BME280;20231;42.710;23.280;2023-01-27T07:51:11;94067.03;;;4.82;65.97
33953;BME280;20231;42.710;23.280;2023-01-27T07:53:37;94071.44;;;4.96;65.01
33953;BME280;20231;42.710;23.280;2023-01-27T07:56:02;94062.31;;;4.99;64.49
33953;BME280;20231;42.710;23.280;2023-01-27T07:58:28;94058.13;;;4.88;64.48
33953;BME280;20231;42.710;23.280;2023-01-27T08:00:53;94085.28;;;5.02;64.82
33953;BME280;20231;42.710;23.280;2023-01-27T08:03:21;94065.44;;;4.91;64.29
33953;BME280;20231;42.710;23.280;2023-01-27T08:05:47;94073.78;;;4.93;64.58
33953;BME280;20231;42.710;23.280;2023-01-27T08:08:12;94055.06;;;4.61;64.61
33953;BME280;20231;42.710;23.280;2023-01-27T08:10:38;94064.19;;;4.59;64.74
33953;BME280;20231;42.710;23.280;2023-01-27T08:13:04;94056.31;;;4.79;65.03
33953;BME280;20231;42.710;23.280;2023-01-27T08:15:30;94048.75;;;4.77;64.91
33953;BME280;20231;42.710;23.280;2023-01-27T08:17:56;94072.50;;;4.95;64.67
33953;BME280;20231;42.710;23.280;2023-01-27T08:20:24;94069.41;;;4.64;64.83
33953;BME280;20231;42.710;23.280;2023-01-27T08:22:50;94062.09;;;4.31;65.73
33953;BME280;20231;42.710;23.280;2023-01-27T08:25:15;94059.44;;;3.81;66.91
33953;BME280;20231;42.710;23.280;2023-01-27T08:27:41;94059.06;;;3.38;67.57
33953;BME280;20231;42.710;23.280;2023-01-27T08:30:07;94078.81;;;3.19;68.63
33953;BME280;20231;42.710;23.280;2023-01-27T08:32:33;94074.28;;;3.71;68.49
33953;BME280;20231;42.710;23.280;2023-01-27T08:34:59;94066.25;;;3.97;67.27
33953;BME280;20231;42.710;23.280;2023-01-27T08:37:24;94082.69;;;4.13;66.74
33953;BME280;20231;42.710;23.280;2023-01-27T08:39:50;94073.59;;;4.15;66.29
33953;BME280;20231;42.710;23.280;2023-01-27T08:42:15;94087.94;;;4.22;66.50
33953;BME280;20231;42.710;23.280;2023-01-27T08:44:40;94083.25;;;4.24;65.48
33953;BME280;20231;42.710;23.280;2023-01-27T08:47:06;94062.53;;;3.58;67.84
33953;BME280;20231;42.710;23.280;2023-01-27T08:49:31;94078.19;;;3.68;67.36
33953;BME280;20231;42.710;23.280;2023-01-27T08:51:57;94075.91;;;3.92;67.46
33953;BME280;20231;42.710;23.280;2023-01-27T08:54:22;94076.94;;;3.96;66.84
33953;BME280;20231;42.710;23.280;2023-01-27T08:56:48;94064.16;;;3.99;67.12
33953;BME280;20231;42.710;23.280;2023-01-27T08:59:13;94086.84;;;3.94;67.36
33953;BME280;20231;42.710;23.280;2023-01-27T09:01:38;94085.97;;;3.53;68.98
33953;BME280;20231;42.710;23.280;2023-01-27T09:04:05;94072.75;;;3.75;67.83
33953;BME280;20231;42.710;23.280;2023-01-27T09:06:31;94087.38;;;4.01;67.15
33953;BME280;20231;42.710;23.280;2023-01-27T09:08:57;94081.66;;;4.14;66.98
33953;BME280;20231;42.710;23.280;2023-01-27T09:11:36;94085.59;;;4.31;66.74
33953;BME280;20231;42.710;23.280;2023-01-27T09:14:02;94072.75;;;3.75;67.14
33953;BME280;20231;42.710;23.280;2023-01-27T09:16:27;94078.53;;;3.97;67.43
33953;BME280;20231;42.710;23.280;2023-01-27T09:18:53;94058.97;;;4.19;66.86
33953;BME280;20231;42.710;23.280;2023-01-27T09:21:19;94075.66;;;4.18;66.63
33953;BME280;20231;42.710;23.280;2023-01-27T09:23:47;94084.31;;;4.23;66.48
33953;BME280;20231;42.710;23.280;2023-01-27T09:26:13;94088.22;;;4.36;66.33
33953;BME280;20231;42.710;23.280;2023-01-27T09:28:38;94077.50;;;4.57;65.92
33953;BME280;20231;42.710;23.280;2023-01-27T09:31:04;94066.00;;;4.58;65.45
33953;BME280;20231;42.710;23.280;2023-01-27T09:33:29;94062.88;;;4.66;65.39
33953;BME280;20231;42.710;23.280;2023-01-27T09:35:56;94065.25;;;4.58;65.75
33953;BME280;20231;42.710;23.280;2023-01-27T09:38:25;94059.22;;;4.37;65.96
33953;BME280;20231;42.710;23.280;2023-01-27T09:41:08;94049.28;;;4.59;66.21
33953;BME280;20231;42.710;23.280;2023-01-27T09:44:16;94056.59;;;4.37;66.18
33953;BME280;20231;42.710;23.280;2023-01-27T09:49:54;94054.53;;;4.15;66.38
33953;BME280;20231;42.710;23.280;2023-01-27T09:52:52;94050.88;;;4.25;66.64
33953;BME280;20231;42.710;23.280;2023-01-27T10:01:36;94040.09;;;3.53;69.20
33953;BME280;20231;42.710;23.280;2023-01-27T10:06:29;94029.41;;;3.54;69.13
33953;BME280;20231;42.710;23.280;2023-01-27T10:09:26;94026.34;;;3.97;68.35
33953;BME280;20231;42.710;23.280;2023-01-27T10:15:22;94023.78;;;3.06;71.32
33953;BME280;20231;42.710;23.280;2023-01-27T10:20:51;94024.94;;;3.35;71.03
33953;BME280;20231;42.710;23.280;2023-01-27T10:23:42;94025.78;;;3.70;69.60
33953;BME280;20231;42.710;23.280;2023-01-27T10:26:23;94011.69;;;3.71;69.60
33953;BME280;20231;42.710;23.280;2023-01-27T10:28:59;94028.91;;;3.77;69.45
33953;BME280;20231;42.710;23.280;2023-01-27T10:31:35;94023.72;;;4.02;68.72
33953;BME280;20231;42.710;23.280;2023-01-27T10:37:14;94009.91;;;4.31;67.50
33953;BME280;20231;42.710;23.280;2023-01-27T10:42:43;94011.19;;;3.89;68.34
33953;BME280;20231;42.710;23.280;2023-01-27T10:45:23;94021.50;;;3.29;70.66
33953;BME280;20231;42.710;23.280;2023-01-27T10:50:44;94012.22;;;3.88;73.64
33953;BME280;20231;42.710;23.280;2023-01-27T10:53:15;94005.19;;;3.73;70.43
33953;BME280;20231;42.710;23.280;2023-01-27T10:56:08;94009.66;;;3.93;70.22
33953;BME280;20231;42.710;23.280;2023-01-27T11:01:11;94005.75;;;4.15;68.50
33953;BME280;20231;42.710;23.280;2023-01-27T11:03:42;94014.34;;;4.35;67.59
33953;BME280;20231;42.710;23.280;2023-01-27T11:06:29;94004.44;;;4.18;67.83
33953;BME280;20231;42.710;23.280;2023-01-27T11:09:18;94010.41;;;4.43;66.99
33953;BME280;20231;42.710;23.280;2023-01-27T11:11:49;94014.06;;;4.57;66.89
33953;BME280;20231;42.710;23.280;2023-01-27T11:14:20;94016.13;;;4.60;66.18
33953;BME280;20231;42.710;23.280;2023-01-27T11:16:51;94010.16;;;4.39;66.57
33953;BME280;20231;42.710;23.280;2023-01-27T11:19:27;94021.13;;;4.41;66.64
33953;BME280;20231;42.710;23.280;2023-01-27T11:21:55;94005.44;;;4.41;66.20
33953;BME280;20231;42.710;23.280;2023-01-27T11:24:45;93991.84;;;4.54;65.88
33953;BME280;20231;42.710;23.280;2023-01-27T11:30:20;93996.56;;;4.47;66.37
33953;BME280;20231;42.710;23.280;2023-01-27T11:33:04;93995.78;;;4.42;66.65
33953;BME280;20231;42.710;23.280;2023-01-27T11:35:34;93984.03;;;4.44;65.99
33953;BME280;20231;42.710;23.280;2023-01-27T11:37:59;93966.84;;;4.28;66.14
33953;BME280;20231;42.710;23.280;2023-01-27T11:40:35;93980.66;;;4.39;66.08
33953;BME280;20231;42.710;23.280;2023-01-27T11:43:03;93974.63;;;4.43;65.92
33953;BME280;20231;42.710;23.280;2023-01-27T11:45:32;93982.19;;;4.50;65.57
33953;BME280;20231;42.710;23.280;2023-01-27T11:48:01;93981.66;;;4.58;65.28
33953;BME280;20231;42.710;23.280;2023-01-27T11:50:32;93993.91;;;4.67;65.41
33953;BME280;20231;42.710;23.280;2023-01-27T11:53:23;93979.31;;;4.56;65.46
33953;BME280;20231;42.710;23.280;2023-01-27T11:55:57;93977.28;;;4.14;66.44
33953;BME280;20231;42.710;23.280;2023-01-27T11:58:28;93975.94;;;4.46;66.68
33953;BME280;20231;42.710;23.280;2023-01-27T12:00:58;93970.94;;;4.59;66.25
33953;BME280;20231;42.710;23.280;2023-01-27T12:06:17;93979.56;;;4.55;66.04
33953;BME280;20231;42.710;23.280;2023-01-27T12:08:50;93964.00;;;3.90;67.39
33953;BME280;20231;42.710;23.280;2023-01-27T12:11:20;93994.25;;;4.01;68.88
33953;BME280;20231;42.710;23.280;2023-01-27T12:14:00;93983.53;;;3.68;69.92
33953;BME280;20231;42.710;23.280;2023-01-27T12:16:45;93984.06;;;3.70;69.80
33953;BME280;20231;42.710;23.280;2023-01-27T12:19:24;93975.19;;;4.01;68.92
33953;BME280;20231;42.710;23.280;2023-01-27T12:21:55;93989.28;;;4.20;68.30
33953;BME280;20231;42.710;23.280;2023-01-27T12:24:35;93975.16;;;3.41;69.31
33953;BME280;20231;42.710;23.280;2023-01-27T12:27:03;93984.59;;;3.77;70.02
33953;BME280;20231;42.710;23.280;2023-01-27T12:29:33;93983.56;;;4.03;69.41
33953;BME280;20231;42.710;23.280;2023-01-27T12:32:02;93993.97;;;4.27;68.69
33953;BME280;20231;42.710;23.280;2023-01-27T12:34:32;93986.41;;;3.76;69.32
33953;BME280;20231;42.710;23.280;2023-01-27T12:37:01;93989.25;;;3.50;70.35
33953;BME280;20231;42.710;23.280;2023-01-27T12:39:49;93990.34;;;3.74;70.16
33953;BME280;20231;42.710;23.280;2023-01-27T12:45:26;93979.63;;;4.10;69.42
33953;BME280;20231;42.710;23.280;2023-01-27T12:48:18;93990.06;;;4.40;68.54
33953;BME280;20231;42.710;23.280;2023-01-27T12:50:53;93990.31;;;4.48;68.06
33953;BME280;20231;42.710;23.280;2023-01-27T12:53:21;93979.59;;;4.35;68.63
33953;BME280;20231;42.710;23.280;2023-01-27T12:58:28;93994.50;;;4.20;69.15
33953;BME280;20231;42.710;23.280;2023-01-27T13:00:55;93972.59;;;4.06;69.02
33953;BME280;20231;42.710;23.280;2023-01-27T13:03:22;93985.91;;;3.84;70.75
33953;BME280;20231;42.710;23.280;2023-01-27T13:05:52;93983.53;;;3.73;71.68
33953;BME280;20231;42.710;23.280;2023-01-27T13:08:20;93967.66;;;3.89;71.84
33953;BME280;20231;42.710;23.280;2023-01-27T13:10:55;93983.28;;;3.94;71.07
33953;BME280;20231;42.710;23.280;2023-01-27T13:13:24;93977.28;;;3.69;72.17
33953;BME280;20231;42.710;23.280;2023-01-27T13:16:04;93979.56;;;3.31;72.89
33953;BME280;20231;42.710;23.280;2023-01-27T13:18:35;93973.09;;;3.63;72.84
33953;BME280;20231;42.710;23.280;2023-01-27T13:21:15;93984.06;;;3.55;72.77
33953;BME280;20231;42.710;23.280;2023-01-27T13:23:41;93915.72;;;3.48;71.89
33953;BME280;20231;42.710;23.280;2023-01-27T13:26:15;93986.59;;;3.35;72.84
33953;BME280;20231;42.710;23.280;2023-01-27T13:28:59;93987.47;;;3.70;72.55
33953;BME280;20231;42.710;23.280;2023-01-27T13:32:05;93987.47;;;3.80;71.20
33953;BME280;20231;42.710;23.280;2023-01-27T13:34:51;93992.16;;;4.03;71.32
33953;BME280;20231;42.710;23.280;2023-01-27T13:37:27;93978.84;;;4.10;69.99
33953;BME280;20231;42.710;23.280;2023-01-27T13:40:01;93981.19;;;4.26;69.92
33953;BME280;20231;42.710;23.280;2023-01-27T13:45:31;93978.06;;;4.19;69.76
33953;BME280;20231;42.710;23.280;2023-01-27T13:50:43;93992.91;;;4.43;68.44
33953;BME280;20231;42.710;23.280;2023-01-27T13:53:13;93989.00;;;4.36;68.57
33953;BME280;20231;42.710;23.280;2023-01-27T13:58:39;94001.28;;;4.25;68.93
33953;BME280;20231;42.710;23.280;2023-01-27T14:01:16;94002.06;;;4.36;68.77
33953;BME280;20231;42.710;23.280;2023-01-27T14:06:27;94004.41;;;4.32;68.88